Time;durP1;ratioP1;P1;durP2;ratioP2;P2;SDS_P1;SDS_P2;PMS_P1;PMS_P2;Temp;Humidity;BMP_temperature;BMP_pressure;BME280_temperature;BME280_humidity;BME280_pressure;Samples;Min_cycle;Max_cycle;Signal;HPM_P1;HPM_P2
2021/10/05 00:00:13;;;;;;;59.27;3.27;;;12.00;92.80;;;;;;5132957;27;20484;-74
2021/10/05 00:02:40;;;;;;;58.13;2.60;;;12.00;92.90;;;;;;5130821;27;20488;-74
2021/10/05 00:05:09;;;;;;;58.17;2.80;;;12.00;93.00;;;;;;5132767;28;20447;-74
2021/10/05 00:07:36;;;;;;;58.17;2.67;;;12.00;93.00;;;;;;5132115;28;20472;-74
2021/10/05 00:10:05;;;;;;;57.97;2.60;;;12.00;93.10;;;;;;5132531;28;20487;-74
2021/10/05 00:12:33;;;;;;;57.87;2.60;;;12.00;93.10;;;;;;5132822;28;20450;-72
2021/10/05 00:15:00;;;;;;;58.07;2.63;;;12.00;93.20;;;;;;5132726;28;20539;-72
2021/10/05 00:17:28;;;;;;;58.20;3.00;;;11.90;93.20;;;;;;5132187;28;20543;-74
2021/10/05 00:19:54;;;;;;;58.07;2.67;;;11.90;93.30;;;;;;5132515;28;20441;-74
2021/10/05 00:22:21;;;;;;;58.07;2.60;;;11.90;93.40;;;;;;5132478;28;20485;-73
2021/10/05 00:24:48;;;;;;;58.07;2.73;;;12.00;93.50;;;;;;5132225;28;20463;-74
2021/10/05 00:27:15;;;;;;;58.07;2.80;;;12.00;93.70;;;;;;5132196;28;20527;-74
2021/10/05 00:29:43;;;;;;;58.17;2.60;;;12.00;93.80;;;;;;5132508;28;20892;-74
2021/10/05 00:32:10;;;;;;;58.30;2.73;;;12.00;93.90;;;;;;5132652;28;20856;-74
2021/10/05 00:34:37;;;;;;;58.30;2.90;;;12.00;94.20;;;;;;5124953;28;20450;-74
2021/10/05 00:37:04;;;;;;;58.60;2.90;;;12.00;94.10;;;;;;5111398;28;20492;-74
2021/10/05 00:39:31;;;;;;;58.40;2.97;;;12.00;94.20;;;;;;5111522;28;20477;-74
2021/10/05 00:41:58;;;;;;;58.20;2.70;;;12.00;94.20;;;;;;5112036;28;20488;-74
2021/10/05 00:44:36;;;;;;;58.03;2.50;;;12.00;94.20;;;;;;5111831;28;20483;-74
2021/10/05 00:47:06;;;;;;;58.80;3.10;;;12.00;94.30;;;;;;5111476;28;20546;-74
2021/10/05 00:49:34;;;;;;;58.50;2.70;;;12.00;94.40;;;;;;5112073;28;20471;-74
2021/10/05 00:52:01;;;;;;;58.27;2.90;;;12.10;94.60;;;;;;5111737;28;20826;-74
2021/10/05 00:54:29;;;;;;;58.33;2.70;;;12.00;94.40;;;;;;5114603;28;20540;-74
2021/10/05 00:56:56;;;;;;;58.03;2.50;;;12.00;94.50;;;;;;5115338;28;20858;-74
2021/10/05 00:59:23;;;;;;;57.97;2.60;;;12.00;94.40;;;;;;5115530;28;20523;-74
2021/10/05 01:01:50;;;;;;;58.20;3.00;;;12.00;94.50;;;;;;5115306;28;20548;-74
2021/10/05 01:04:18;;;;;;;59.20;3.43;;;12.00;94.60;;;;;;5115380;28;20524;-74
2021/10/05 01:06:54;;;;;;;58.27;2.80;;;12.00;94.60;;;;;;5127252;27;20480;-74
2021/10/05 01:09:21;;;;;;;58.07;2.80;;;12.00;94.70;;;;;;5135946;27;20547;-74
2021/10/05 01:11:48;;;;;;;58.30;2.80;;;12.00;94.70;;;;;;5135850;27;20447;-72
2021/10/05 01:14:15;;;;;;;58.40;3.03;;;12.00;94.60;;;;;;5135840;27;20481;-72
2021/10/05 01:16:42;;;;;;;57.87;2.70;;;12.00;94.60;;;;;;5135256;27;20531;-72
2021/10/05 01:19:08;;;;;;;58.07;2.77;;;12.00;94.70;;;;;;5135951;27;20469;-72
2021/10/05 01:21:37;;;;;;;57.97;2.70;;;12.00;94.70;;;;;;5135702;27;20560;-72
2021/10/05 01:24:09;;;;;;;58.03;2.70;;;12.00;94.80;;;;;;5135523;27;20535;-72
2021/10/05 01:26:36;;;;;;;58.00;2.70;;;12.00;94.80;;;;;;5136057;27;20450;-72
2021/10/05 01:29:04;;;;;;;58.17;2.70;;;12.00;94.90;;;;;;5135575;27;20475;-72
2021/10/05 01:31:32;;;;;;;57.97;2.57;;;12.00;94.90;;;;;;5133694;27;20993;-72
2021/10/05 01:33:59;;;;;;;58.50;3.60;;;12.00;94.90;;;;;;5135668;27;20874;-72
2021/10/05 01:36:27;;;;;;;58.00;2.70;;;11.90;95.00;;;;;;5134903;27;20983;-72
2021/10/05 01:38:55;;;;;;;58.40;2.80;;;11.90;94.90;;;;;;5133308;27;20550;-72
2021/10/05 01:41:22;;;;;;;58.13;2.70;;;11.90;95.00;;;;;;5135060;27;20455;-72
2021/10/05 01:43:49;;;;;;;58.30;2.70;;;11.90;95.00;;;;;;5136140;27;20484;-72
2021/10/05 01:46:16;;;;;;;58.60;2.90;;;11.90;95.00;;;;;;5135702;27;20535;-72
2021/10/05 01:48:44;;;;;;;58.10;2.80;;;11.90;95.10;;;;;;5134428;27;20490;-72
2021/10/05 01:51:11;;;;;;;57.77;2.60;;;11.90;95.10;;;;;;5133232;27;20551;-72
2021/10/05 01:53:38;;;;;;;58.00;2.70;;;11.90;95.10;;;;;;5131731;27;20442;-72
2021/10/05 01:56:07;;;;;;;58.00;2.60;;;11.90;95.20;;;;;;5133485;27;21028;-72
2021/10/05 01:58:35;;;;;;;58.00;2.60;;;11.90;95.20;;;;;;5135182;27;20657;-72
2021/10/05 02:01:02;;;;;;;58.03;2.67;;;11.90;95.30;;;;;;5134491;27;20544;-72
2021/10/05 02:03:30;;;;;;;58.10;2.70;;;11.90;95.20;;;;;;5134112;27;20539;-73
2021/10/05 02:05:56;;;;;;;58.27;2.80;;;11.90;95.30;;;;;;5131922;27;20476;-73
2021/10/05 02:08:23;;;;;;;58.40;2.90;;;11.90;95.30;;;;;;5133427;27;20488;-72
2021/10/05 02:10:50;;;;;;;58.27;2.90;;;11.90;95.30;;;;;;5133302;27;20460;-72
2021/10/05 02:13:18;;;;;;;58.60;3.20;;;11.90;95.30;;;;;;5134725;27;20440;-72
2021/10/05 02:15:45;;;;;;;57.87;2.50;;;11.90;95.40;;;;;;5134165;27;20531;-72
2021/10/05 02:18:12;;;;;;;58.07;2.70;;;12.00;95.40;;;;;;5134484;27;20842;-72
2021/10/05 02:20:39;;;;;;;58.13;2.70;;;12.00;95.40;;;;;;5134384;27;20540;-72
2021/10/05 02:23:06;;;;;;;58.07;2.53;;;12.00;95.40;;;;;;5134285;27;20575;-72
2021/10/05 02:25:33;;;;;;;58.27;2.93;;;12.00;95.50;;;;;;5133886;27;20456;-72
2021/10/05 02:28:00;;;;;;;58.03;2.50;;;12.00;95.50;;;;;;5135119;27;20984;-73
2021/10/05 02:30:28;;;;;;;58.30;2.70;;;12.00;95.80;;;;;;5135335;27;20539;-73
2021/10/05 02:32:55;;;;;;;58.10;2.50;;;12.00;95.60;;;;;;5134918;27;20881;-73
2021/10/05 02:35:22;;;;;;;58.10;2.50;;;12.00;95.50;;;;;;5134439;27;20876;-73
2021/10/05 02:37:49;;;;;;;58.07;2.80;;;12.00;95.60;;;;;;5134056;27;20529;-72
2021/10/05 02:40:16;;;;;;;57.93;2.60;;;12.00;95.60;;;;;;5134589;27;20484;-72
2021/10/05 02:42:43;;;;;;;58.07;3.40;;;11.90;95.50;;;;;;5132646;27;20487;-72
2021/10/05 02:45:10;;;;;;;58.53;3.33;;;11.90;95.60;;;;;;5134256;27;20440;-72
2021/10/05 02:47:38;;;;;;;58.03;2.60;;;11.90;95.60;;;;;;5133864;27;20471;-72
2021/10/05 02:50:06;;;;;;;58.10;2.80;;;11.90;95.70;;;;;;5134077;27;20452;-72
2021/10/05 02:52:32;;;;;;;58.00;2.67;;;11.90;95.70;;;;;;5134192;27;20880;-72
2021/10/05 02:54:59;;;;;;;58.07;2.80;;;11.90;95.70;;;;;;5134145;27;20526;-73
2021/10/05 02:57:26;;;;;;;57.93;2.47;;;11.90;95.80;;;;;;5133835;27;20440;-73
2021/10/05 02:59:53;;;;;;;58.07;2.70;;;11.90;95.80;;;;;;5133898;27;20531;-72
2021/10/05 03:02:20;;;;;;;58.07;2.90;;;11.90;95.90;;;;;;5133670;27;20535;-72
2021/10/05 03:04:48;;;;;;;58.23;2.77;;;11.90;95.90;;;;;;5133549;27;20479;-72
2021/10/05 03:07:15;;;;;;;58.27;2.90;;;11.90;95.90;;;;;;5133698;27;20536;-72
2021/10/05 03:09:42;;;;;;;58.07;2.60;;;11.90;95.90;;;;;;5133868;27;20480;-72
2021/10/05 03:12:09;;;;;;;58.50;2.80;;;11.90;95.90;;;;;;5133777;27;20456;-72
2021/10/05 03:14:36;;;;;;;58.20;3.03;;;11.90;96.00;;;;;;5132107;27;20857;-72
2021/10/05 03:17:03;;;;;;;57.97;2.60;;;11.90;96.10;;;;;;5133151;27;20944;-72
2021/10/05 03:19:30;;;;;;;59.53;2.90;;;11.90;96.10;;;;;;5133176;27;21002;-72
2021/10/05 03:21:58;;;;;;;58.30;2.97;;;11.90;96.20;;;;;;5133633;27;20531;-72
2021/10/05 03:24:26;;;;;;;58.17;2.90;;;11.90;96.20;;;;;;5133101;27;21026;-72
2021/10/05 03:26:53;;;;;;;58.10;2.53;;;11.90;96.20;;;;;;5133448;27;20444;-72
2021/10/05 03:29:19;;;;;;;58.10;2.70;;;11.90;96.20;;;;;;5133344;27;20461;-72
2021/10/05 03:31:46;;;;;;;58.17;3.17;;;11.90;96.20;;;;;;5133245;27;20875;-72
2021/10/05 03:34:13;;;;;;;57.90;2.60;;;11.90;96.30;;;;;;5133571;27;20440;-72
2021/10/05 03:36:40;;;;;;;58.17;2.80;;;11.90;96.20;;;;;;5133063;27;20487;-72
2021/10/05 03:39:08;;;;;;;57.93;2.80;;;11.90;96.30;;;;;;5133279;27;20550;-72
2021/10/05 03:41:35;;;;;;;58.07;2.60;;;11.90;96.20;;;;;;5133335;27;20476;-72
2021/10/05 03:44:02;;;;;;;58.20;3.10;;;11.90;96.20;;;;;;5132770;27;20523;-72
2021/10/05 03:46:29;;;;;;;58.10;2.60;;;11.90;96.20;;;;;;5131259;27;20459;-71
2021/10/05 03:48:56;;;;;;;58.30;2.80;;;11.90;96.40;;;;;;5133294;27;20495;-71
2021/10/05 03:51:23;;;;;;;58.47;3.53;;;11.90;96.20;;;;;;5132965;27;20455;-71
2021/10/05 03:53:50;;;;;;;57.90;2.67;;;11.90;96.30;;;;;;5133092;27;20531;-71
2021/10/05 03:56:18;;;;;;;57.97;2.63;;;11.90;96.40;;;;;;5132518;27;20531;-71
2021/10/05 03:58:45;;;;;;;58.13;2.90;;;11.90;96.30;;;;;;5133048;27;20496;-71
2021/10/05 04:01:11;;;;;;;58.10;2.60;;;11.90;96.50;;;;;;5132970;27;20476;-71
2021/10/05 04:03:41;;;;;;;58.00;2.70;;;11.90;96.40;;;;;;5133061;27;20567;-71
2021/10/05 04:06:08;;;;;;;57.83;2.47;;;11.90;96.40;;;;;;5132407;28;20444;-71
2021/10/05 04:08:36;;;;;;;58.10;2.63;;;11.90;96.40;;;;;;5132954;28;20470;-71
2021/10/05 04:11:03;;;;;;;58.13;2.70;;;11.90;96.50;;;;;;5133561;28;20448;-71
2021/10/05 04:13:31;;;;;;;58.07;2.60;;;11.90;96.50;;;;;;5133169;28;20519;-71
2021/10/05 04:15:59;;;;;;;58.00;2.60;;;11.90;96.60;;;;;;5132363;28;20467;-71
2021/10/05 04:18:25;;;;;;;58.17;2.70;;;11.90;96.60;;;;;;5132761;28;20468;-71
2021/10/05 04:20:52;;;;;;;58.07;2.53;;;11.90;96.60;;;;;;5132580;28;20445;-71
2021/10/05 04:23:19;;;;;;;58.27;2.70;;;11.90;96.70;;;;;;5132649;28;20476;-70
2021/10/05 04:25:46;;;;;;;58.17;2.70;;;11.90;96.70;;;;;;5132254;28;20460;-70
2021/10/05 04:28:13;;;;;;;58.17;2.60;;;11.90;96.70;;;;;;5133439;27;20470;-70
2021/10/05 04:30:41;;;;;;;57.87;2.70;;;11.90;96.70;;;;;;5136580;27;20513;-70
2021/10/05 04:33:08;;;;;;;58.20;2.60;;;11.80;96.80;;;;;;5136829;27;20496;-70
2021/10/05 04:35:35;;;;;;;58.07;2.70;;;11.80;96.80;;;;;;5136176;27;20476;-70
2021/10/05 04:38:02;;;;;;;58.17;2.90;;;11.80;96.80;;;;;;5136515;27;20555;-70
2021/10/05 04:40:29;;;;;;;58.30;3.30;;;11.90;97.00;;;;;;5136411;27;20548;-70
2021/10/05 04:42:56;;;;;;;58.27;3.10;;;11.90;96.90;;;;;;5136526;27;20895;-70
2021/10/05 04:45:22;;;;;;;58.03;2.67;;;11.90;96.90;;;;;;5136252;27;20973;-70
2021/10/05 04:47:51;;;;;;;58.27;2.90;;;11.90;97.00;;;;;;5136099;27;20503;-70
2021/10/05 04:50:18;;;;;;;60.17;2.73;;;11.90;97.30;;;;;;5136219;27;20540;-70
2021/10/05 04:52:44;;;;;;;58.27;2.77;;;11.90;97.30;;;;;;5136173;27;20467;-70
2021/10/05 04:55:11;;;;;;;58.17;2.73;;;11.90;97.30;;;;;;5136102;27;20448;-69
2021/10/05 04:57:38;;;;;;;58.20;3.10;;;11.90;97.30;;;;;;5136067;27;20467;-70
2021/10/05 05:00:07;;;;;;;58.10;2.80;;;11.90;97.30;;;;;;5136142;27;20440;-69
2021/10/05 05:02:34;;;;;;;57.87;2.50;;;11.90;97.40;;;;;;5136213;27;20448;-69
2021/10/05 05:05:03;;;;;;;58.10;2.60;;;11.80;97.40;;;;;;5135863;27;20575;-69
2021/10/05 05:07:30;;;;;;;58.30;3.40;;;11.80;97.40;;;;;;5135440;27;20523;-69
2021/10/05 05:09:57;;;;;;;58.20;2.60;;;11.80;97.40;;;;;;5136088;27;20625;-69
2021/10/05 05:12:24;;;;;;;58.10;2.80;;;11.80;97.40;;;;;;5135994;27;20444;-69
2021/10/05 05:14:50;;;;;;;57.77;2.70;;;11.80;97.40;;;;;;5135743;27;21036;-69
2021/10/05 05:17:17;;;;;;;58.33;3.10;;;11.80;97.50;;;;;;5135456;27;20480;-69
2021/10/05 05:19:44;;;;;;;57.80;2.50;;;11.90;97.60;;;;;;5135686;27;20440;-69
2021/10/05 05:22:12;;;;;;;57.97;2.70;;;11.90;97.70;;;;;;5135607;27;20436;-69
2021/10/05 05:24:39;;;;;;;58.00;2.53;;;11.90;97.70;;;;;;5135632;27;20575;-69
2021/10/05 05:27:06;;;;;;;58.20;2.60;;;11.90;97.80;;;;;;5135770;27;20863;-69
2021/10/05 05:29:33;;;;;;;57.97;3.10;;;11.90;97.80;;;;;;5135618;27;20548;-69
2021/10/05 05:32:00;;;;;;;58.00;2.70;;;11.90;97.90;;;;;;5136226;27;20446;-69
2021/10/05 05:34:27;;;;;;;57.77;2.70;;;11.90;97.90;;;;;;5135376;27;20944;-69
2021/10/05 05:36:55;;;;;;;58.07;3.23;;;11.90;98.00;;;;;;5135574;27;20528;-69
2021/10/05 05:39:23;;;;;;;57.87;2.73;;;11.90;98.10;;;;;;5134693;27;20464;-69
2021/10/05 05:41:50;;;;;;;57.87;2.60;;;11.90;98.10;;;;;;5135011;27;21059;-69
2021/10/05 05:44:17;;;;;;;58.07;2.60;;;11.90;99.90;;;;;;5134978;27;21022;-69
2021/10/05 05:46:44;;;;;;;58.17;2.87;;;11.90;99.90;;;;;;5135035;27;20444;-69
2021/10/05 05:49:11;;;;;;;57.93;2.70;;;12.00;99.60;;;;;;5135322;27;20552;-69
2021/10/05 05:51:37;;;;;;;58.10;2.80;;;12.00;99.10;;;;;;5134488;27;20504;-69
2021/10/05 05:54:05;;;;;;;58.07;2.60;;;12.00;98.90;;;;;;5134625;27;20442;-69
2021/10/05 05:56:33;;;;;;;57.87;2.67;;;12.00;99.10;;;;;;5135007;27;20865;-69
2021/10/05 05:59:00;;;;;;;58.03;3.00;;;12.00;99.00;;;;;;5135152;27;20464;-69
2021/10/05 06:01:27;;;;;;;57.87;2.60;;;12.00;98.60;;;;;;5135024;27;20786;-69
2021/10/05 06:03:54;;;;;;;57.97;2.60;;;12.00;98.50;;;;;;5134997;27;20483;-69
2021/10/05 06:06:21;;;;;;;58.07;2.50;;;12.00;98.50;;;;;;5134722;27;20476;-69
2021/10/05 06:08:49;;;;;;;58.03;2.40;;;12.00;98.60;;;;;;5134744;27;20472;-69
2021/10/05 06:11:18;;;;;;;57.93;2.80;;;12.00;98.60;;;;;;5134867;27;20488;-69
2021/10/05 06:13:47;;;;;;;58.00;2.47;;;12.00;98.60;;;;;;5134711;27;20443;-69
2021/10/05 06:16:14;;;;;;;58.77;3.30;;;12.00;98.70;;;;;;5134286;27;20452;-69
2021/10/05 06:18:41;;;;;;;57.67;2.33;;;12.00;98.60;;;;;;5134746;27;20465;-69
2021/10/05 06:21:08;;;;;;;57.80;2.70;;;12.00;98.70;;;;;;5134976;27;20539;-69
2021/10/05 06:23:35;;;;;;;57.87;2.43;;;12.10;98.80;;;;;;5134627;27;20518;-69
2021/10/05 06:26:03;;;;;;;57.87;2.60;;;12.10;98.80;;;;;;5134339;27;20794;-69
2021/10/05 06:28:29;;;;;;;57.93;2.60;;;12.20;98.90;;;;;;5134289;27;20907;-70
2021/10/05 06:30:58;;;;;;;58.17;3.10;;;12.20;98.90;;;;;;5134273;27;20472;-69
2021/10/05 06:33:25;;;;;;;57.77;2.60;;;12.20;99.00;;;;;;5134606;27;20444;-70
2021/10/05 06:35:52;;;;;;;57.97;2.40;;;12.30;99.00;;;;;;5134024;27;20960;-69
2021/10/05 06:38:19;;;;;;;58.30;3.43;;;12.40;99.00;;;;;;5134329;27;20470;-69
2021/10/05 06:40:46;;;;;;;57.80;2.87;;;12.40;99.10;;;;;;5134114;27;20521;-69
2021/10/05 06:43:13;;;;;;;58.07;2.70;;;12.50;99.20;;;;;;5134054;27;20472;-69
2021/10/05 06:45:40;;;;;;;57.77;2.97;;;12.60;99.10;;;;;;5133815;27;20484;-69
2021/10/05 06:48:09;;;;;;;58.10;2.90;;;12.60;98.80;;;;;;5134165;27;20831;-70
2021/10/05 06:50:36;;;;;;;57.80;2.77;;;12.70;98.80;;;;;;5133622;27;20448;-70
2021/10/05 06:53:04;;;;;;;58.77;4.53;;;12.70;98.70;;;;;;5134027;27;20445;-70
2021/10/05 06:55:32;;;;;;;57.77;2.60;;;12.70;98.50;;;;;;5133690;27;20436;-70
2021/10/05 06:58:00;;;;;;;58.17;2.60;;;12.70;98.30;;;;;;5133975;27;20468;-70
2021/10/05 07:00:27;;;;;;;57.77;2.30;;;12.70;98.00;;;;;;5134229;27;20588;-70
2021/10/05 07:02:54;;;;;;;57.87;2.60;;;12.70;97.90;;;;;;5133911;27;20539;-70
2021/10/05 07:05:23;;;;;;;57.67;2.70;;;12.80;97.80;;;;;;5133719;27;20584;-70
2021/10/05 07:07:52;;;;;;;58.13;2.70;;;12.80;97.90;;;;;;5133895;27;20464;-70
2021/10/05 07:10:20;;;;;;;57.77;2.50;;;12.90;97.80;;;;;;5133620;27;20487;-70
2021/10/05 07:12:48;;;;;;;59.33;2.90;;;13.00;97.90;;;;;;5133881;27;20883;-70
2021/10/05 07:15:15;;;;;;;57.77;2.63;;;13.10;98.50;;;;;;5133624;27;20469;-70
2021/10/05 07:17:42;;;;;;;58.07;2.80;;;13.30;98.70;;;;;;5133319;27;20843;-69
2021/10/05 07:20:11;;;;;;;58.00;2.70;;;13.40;99.00;;;;;;5133993;27;20817;-69
2021/10/05 07:22:39;;;;;;;57.87;2.90;;;13.50;99.00;;;;;;5133312;27;20477;-69
2021/10/05 07:25:07;;;;;;;57.90;2.70;;;13.60;99.20;;;;;;5133040;27;20563;-69
2021/10/05 07:27:34;;;;;;;57.70;2.60;;;13.70;98.70;;;;;;5132993;27;20449;-69
2021/10/05 07:30:03;;;;;;;57.93;2.70;;;13.70;98.30;;;;;;5133365;27;20472;-69
2021/10/05 07:32:30;;;;;;;57.73;2.40;;;13.70;97.60;;;;;;5133367;27;20445;-69
2021/10/05 07:34:57;;;;;;;57.63;2.40;;;13.60;96.60;;;;;;5133264;27;20437;-69
2021/10/05 07:37:24;;;;;;;57.87;2.60;;;13.60;95.80;;;;;;5132747;27;20537;-69
2021/10/05 07:39:52;;;;;;;57.97;2.40;;;13.60;94.80;;;;;;5133031;27;20517;-69
2021/10/05 07:42:20;;;;;;;57.67;2.30;;;13.70;94.70;;;;;;5132983;27;20928;-69
2021/10/05 07:44:48;;;;;;;58.13;3.20;;;13.70;94.40;;;;;;5133165;27;20482;-69
2021/10/05 07:47:15;;;;;;;57.90;2.87;;;13.80;93.90;;;;;;5133035;27;20539;-69
2021/10/05 07:49:42;;;;;;;57.87;2.77;;;13.80;93.70;;;;;;5132955;27;20445;-70
2021/10/05 07:52:09;;;;;;;57.83;2.67;;;13.80;93.30;;;;;;5133458;27;20445;-70
2021/10/05 07:54:36;;;;;;;57.87;2.60;;;13.80;93.00;;;;;;5133186;27;20449;-70
2021/10/05 07:57:06;;;;;;;58.37;3.53;;;13.80;92.50;;;;;;5132877;27;20444;-69
2021/10/05 07:59:33;;;;;;;57.63;2.50;;;13.80;92.20;;;;;;5132728;27;20559;-69
2021/10/05 08:02:00;;;;;;;57.90;2.77;;;13.80;92.20;;;;;;5132824;27;20453;-69
2021/10/05 08:04:27;;;;;;;58.27;3.03;;;13.90;92.20;;;;;;5131802;27;21003;-70
2021/10/05 08:06:54;;;;;;;57.90;2.63;;;14.10;93.10;;;;;;5132423;28;20441;-69
2021/10/05 08:09:21;;;;;;;57.90;2.63;;;14.20;92.50;;;;;;5132719;28;20469;-70
2021/10/05 08:11:48;;;;;;;57.90;2.80;;;14.20;91.40;;;;;;5133032;28;20445;-69
2021/10/05 08:14:16;;;;;;;58.70;2.77;;;14.30;90.70;;;;;;5132636;28;20438;-69
2021/10/05 08:16:44;;;;;;;58.00;3.03;;;14.40;78.30;;;;;;5132495;28;20445;-69
2021/10/05 08:19:11;;;;;;;57.90;2.90;;;14.30;74.90;;;;;;5132319;28;20584;-69
2021/10/05 08:21:38;;;;;;;57.80;2.70;;;14.30;72.60;;;;;;5132720;28;20449;-69
2021/10/05 08:24:05;;;;;;;58.13;2.60;;;14.20;68.70;;;;;;5132726;28;20529;-69
2021/10/05 08:26:33;;;;;;;57.80;2.70;;;14.10;60.50;;;;;;5132341;28;20450;-69
2021/10/05 08:29:00;;;;;;;58.37;3.50;;;14.10;59.30;;;;;;5132319;28;20473;-69
2021/10/05 08:31:28;;;;;;;57.63;2.60;;;14.00;56.00;;;;;;5132635;28;20451;-69
2021/10/05 08:33:55;;;;;;;57.93;2.37;;;14.00;53.50;;;;;;5132698;28;20478;-69
2021/10/05 08:36:23;;;;;;;58.00;2.80;;;14.00;51.90;;;;;;5132239;28;20453;-69
2021/10/05 08:38:49;;;;;;;58.00;2.83;;;14.00;49.90;;;;;;5132585;28;20993;-68
2021/10/05 08:41:17;;;;;;;59.17;3.50;;;14.00;47.70;;;;;;5132637;28;20450;-69
2021/10/05 08:43:44;;;;;;;58.17;2.90;;;14.00;48.50;;;;;;5132302;28;20542;-70
2021/10/05 08:46:12;;;;;;;57.93;2.77;;;14.20;61.10;;;;;;5132335;28;20907;-70
2021/10/05 08:48:41;;;;;;;57.90;2.40;;;14.50;63.50;;;;;;5132613;28;20470;-70
2021/10/05 08:51:09;;;;;;;58.00;2.50;;;14.50;61.40;;;;;;5132246;28;20446;-70
2021/10/05 08:53:37;;;;;;;58.20;3.07;;;14.60;54.60;;;;;;5132593;28;20442;-70
2021/10/05 08:56:06;;;;;;;57.97;2.77;;;14.80;53.50;;;;;;5131956;28;20435;-70
2021/10/05 08:58:33;;;;;;;57.90;2.40;;;14.90;54.20;;;;;;5132215;28;20989;-70
2021/10/05 09:01:10;;;;;;;58.00;2.50;;;14.90;26.60;;;;;;5132225;28;20929;-70
2021/10/05 09:03:39;;;;;;;58.27;3.17;;;14.90;18.20;;;;;;5132507;28;20502;-70
2021/10/05 09:06:14;;;;;;;57.63;2.50;;;14.90;17.00;;;;;;5131936;28;20485;-70
2021/10/05 09:08:43;;;;;;;58.17;3.10;;;14.80;3.20;;;;;;5132466;28;20900;-70
2021/10/05 09:11:11;;;;;;;58.20;2.80;;;14.60;1.00;;;;;;5132216;28;20450;-70
2021/10/05 09:13:41;;;;;;;57.87;2.60;;;14.60;1.00;;;;;;5132657;27;20471;-70
2021/10/05 09:16:23;;;;;;;58.40;2.90;;;14.60;1.00;;;;;;5135993;27;20450;-70
2021/10/05 09:18:55;;;;;;;57.87;2.50;;;14.50;1.00;;;;;;5136031;27;20489;-70
2021/10/05 09:21:23;;;;;;;58.00;2.90;;;14.50;1.00;;;;;;5135667;27;20445;-70
2021/10/05 09:23:59;;;;;;;57.83;2.57;;;14.40;1.00;;;;;;5136140;27;20527;-70
2021/10/05 09:26:43;;;;;;;58.27;3.40;;;14.40;1.00;;;;;;5135132;27;21012;-70
2021/10/05 09:29:16;;;;;;;58.00;2.50;;;14.40;1.00;;;;;;5135632;27;20552;-70
2021/10/05 09:31:58;;;;;;;57.83;2.97;;;14.40;1.00;;;;;;5135538;27;20450;-70
2021/10/05 09:34:40;;;;;;;57.50;2.70;;;14.40;1.00;;;;;;5135478;27;20540;-70
2021/10/05 09:37:10;;;;;;;57.67;2.70;;;14.40;1.00;;;;;;5135385;27;20457;-70
2021/10/05 09:39:39;;;;;;;57.83;2.43;;;14.50;1.00;;;;;;5135511;27;20501;-70
2021/10/05 09:42:06;;;;;;;58.00;2.60;;;14.60;1.00;;;;;;5135296;27;20450;-70
2021/10/05 09:44:33;;;;;;;57.87;2.57;;;14.60;1.00;;;;;;5135240;27;21045;-70
2021/10/05 09:47:00;;;;;;;57.90;2.50;;;14.70;1.00;;;;;;5134775;27;20521;-70
2021/10/05 09:49:27;;;;;;;57.93;2.53;;;14.70;1.00;;;;;;5135147;27;21019;-70
2021/10/05 09:51:58;;;;;;;57.73;2.80;;;14.80;1.00;;;;;;5135530;27;20473;-68
2021/10/05 09:54:28;;;;;;;59.17;3.87;;;14.90;1.00;;;;;;5135148;27;20439;-69
2021/10/05 09:56:55;;;;;;;57.77;2.60;;;15.20;1.00;;;;;;5134709;27;20863;-70
2021/10/05 09:59:22;;;;;;;58.10;2.60;;;15.40;1.00;;;;;;5134820;27;20485;-70
2021/10/05 10:01:49;;;;;;;57.57;2.60;;;15.60;1.00;;;;;;5135105;27;20534;-70
2021/10/05 10:04:17;;;;;;;57.43;2.60;;;15.60;1.00;;;;;;5135073;27;20451;-70
2021/10/05 10:06:45;;;;;;;57.30;2.47;;;15.70;1.00;;;;;;5134838;27;20501;-68
2021/10/05 10:09:12;;;;;;;58.10;2.50;;;15.80;1.00;;;;;;5135012;27;20567;-68
2021/10/05 10:11:41;;;;;;;58.07;2.50;;;15.90;1.00;;;;;;5134701;27;20440;-70
2021/10/05 10:14:08;;;;;;;58.00;2.60;;;15.90;1.00;;;;;;5135069;27;20529;-70
2021/10/05 10:16:36;;;;;;;57.90;2.50;;;15.80;1.00;;;;;;5134595;27;20530;-70
2021/10/05 10:19:04;;;;;;;58.10;2.50;;;15.60;1.00;;;;;;5134895;27;20469;-68
2021/10/05 10:21:33;;;;;;;57.73;2.40;;;15.80;1.00;;;;;;5134423;27;20454;-70
2021/10/05 10:24:10;;;;;;;57.80;2.50;;;15.90;1.00;;;;;;5134435;27;21097;-69
2021/10/05 10:26:41;;;;;;;57.97;2.53;;;15.90;1.00;;;;;;5133320;27;20489;-67
2021/10/05 10:29:11;;;;;;;58.00;2.80;;;16.00;1.00;;;;;;5134541;27;20880;-67
2021/10/05 10:31:39;;;;;;;57.77;2.53;;;16.30;1.00;;;;;;5134473;27;20448;-67
2021/10/05 10:34:08;;;;;;;58.30;2.60;;;16.60;1.00;;;;;;5134482;27;20841;-69
2021/10/05 10:36:40;;;;;;;58.07;2.33;;;16.90;1.00;;;;;;5133837;27;20443;-69
2021/10/05 10:39:09;;;;;;;57.50;2.60;;;17.30;1.00;;;;;;5134179;27;20475;-69
2021/10/05 10:41:39;;;;;;;57.90;2.67;;;17.70;1.00;;;;;;5134231;27;20451;-69
2021/10/05 10:44:10;;;;;;;57.77;2.60;;;18.20;1.00;;;;;;5134314;27;20498;-69
2021/10/05 10:46:40;;;;;;;58.07;2.50;;;18.40;1.00;;;;;;5134217;27;20485;-69
2021/10/05 10:49:14;;;;;;;57.93;2.17;;;18.40;1.00;;;;;;5134084;27;20552;-69
2021/10/05 10:51:43;;;;;;;57.97;2.70;;;18.20;1.00;;;;;;5134034;27;20486;-69
2021/10/05 10:54:15;;;;;;;57.97;2.30;;;17.90;1.00;;;;;;5134060;27;20539;-67
2021/10/05 10:56:44;;;;;;;57.67;2.07;;;17.60;1.00;;;;;;5133636;27;20448;-67
2021/10/05 10:59:12;;;;;;;57.00;2.13;;;17.30;1.00;;;;;;5134086;27;20461;-68
2021/10/05 11:01:43;;;;;;;57.90;2.30;;;17.20;1.00;;;;;;5133670;27;20467;-68
2021/10/05 11:04:11;;;;;;;57.90;2.30;;;17.10;1.00;;;;;;5133880;27;20440;-68
2021/10/05 11:06:39;;;;;;;57.33;2.50;;;17.00;1.00;;;;;;5133284;27;20487;-68
2021/10/05 11:09:07;;;;;;;57.87;2.50;;;17.10;1.00;;;;;;5133650;27;20468;-68
2021/10/05 11:11:37;;;;;;;57.70;2.20;;;17.20;1.00;;;;;;5133664;27;20455;-68
2021/10/05 11:14:06;;;;;;;58.10;2.43;;;17.20;1.00;;;;;;5133388;27;21034;-68
2021/10/05 11:16:34;;;;;;;59.03;2.40;;;16.90;1.00;;;;;;5133175;27;21014;-68
2021/10/05 11:19:08;;;;;;;57.93;2.27;;;16.80;1.00;;;;;;5133522;27;20469;-68
2021/10/05 11:21:37;;;;;;;57.77;2.40;;;16.80;1.00;;;;;;5133582;27;20526;-68
2021/10/05 11:24:05;;;;;;;58.80;2.93;;;16.90;1.00;;;;;;5126211;27;20459;-68
2021/10/05 11:26:34;;;;;;;57.80;2.30;;;16.90;1.00;;;;;;5112353;28;20567;-69
2021/10/05 11:29:02;;;;;;;57.90;2.47;;;16.90;1.00;;;;;;5117025;27;20808;-70
2021/10/05 11:31:41;;;;;;;58.33;2.67;;;16.80;1.00;;;;;;5132730;27;20455;-70
2021/10/05 11:34:09;;;;;;;58.30;2.50;;;16.70;1.00;;;;;;5132768;27;20454;-71
2021/10/05 11:36:37;;;;;;;57.97;2.47;;;16.70;1.00;;;;;;5132374;27;20938;-70
2021/10/05 11:39:05;;;;;;;58.00;2.20;;;16.60;1.00;;;;;;5132882;27;20463;-71
2021/10/05 11:41:40;;;;;;;58.20;2.30;;;16.60;1.00;;;;;;5132627;27;20939;-71
2021/10/05 11:44:15;;;;;;;57.77;2.40;;;16.60;1.00;;;;;;5132549;27;20458;-71
2021/10/05 11:46:56;;;;;;;57.83;2.20;;;16.50;1.00;;;;;;5132534;27;20497;-71
2021/10/05 11:49:25;;;;;;;57.97;2.30;;;16.60;1.00;;;;;;5132440;27;20467;-71
2021/10/05 11:51:54;;;;;;;57.80;2.00;;;16.90;1.00;;;;;;5132629;27;20448;-71
2021/10/05 11:54:22;;;;;;;57.57;2.20;;;17.30;1.00;;;;;;5132917;27;20952;-71
2021/10/05 11:56:49;;;;;;;57.97;2.47;;;17.50;1.00;;;;;;5132716;27;20442;-70
2021/10/05 11:59:28;;;;;;;57.67;2.03;;;17.80;1.00;;;;;;5132590;27;20470;-69
2021/10/05 12:02:00;;;;;;;57.93;2.60;;;17.80;1.00;;;;;;5130633;27;20455;-69
2021/10/05 12:04:29;;;;;;;58.20;2.50;;;17.60;1.00;;;;;;5133145;27;20540;-70
2021/10/05 12:07:00;;;;;;;58.00;2.57;;;17.40;1.00;;;;;;5132147;27;21000;-70
2021/10/05 12:09:28;;;;;;;57.63;2.30;;;17.20;1.00;;;;;;5132216;28;20484;-70
2021/10/05 12:12:10;;;;;;;57.93;2.50;;;17.00;1.00;;;;;;5132469;28;20476;-70
2021/10/05 12:14:40;;;;;;;57.97;2.40;;;16.80;1.00;;;;;;5132721;28;20898;-70
2021/10/05 12:17:12;;;;;;;57.70;2.50;;;16.60;1.00;;;;;;5132613;28;20443;-70
2021/10/05 12:19:44;;;;;;;57.97;2.30;;;16.50;1.00;;;;;;5132638;28;20502;-70
2021/10/05 12:22:11;;;;;;;57.57;2.30;;;16.40;1.00;;;;;;5132732;28;20448;-70
2021/10/05 12:24:43;;;;;;;57.77;2.40;;;16.40;1.00;;;;;;5132337;28;20460;-70
2021/10/05 12:27:14;;;;;;;57.87;2.47;;;16.50;1.00;;;;;;5131931;28;20491;-70
2021/10/05 12:29:49;;;;;;;57.77;2.30;;;16.60;1.00;;;;;;5132072;28;20890;-70
2021/10/05 12:32:16;;;;;;;57.73;2.20;;;16.70;1.00;;;;;;5130967;28;20486;-70
2021/10/05 12:34:50;;;;;;;57.47;2.20;;;16.90;1.00;;;;;;5132518;28;20445;-71
2021/10/05 12:37:18;;;;;;;57.97;2.20;;;17.10;1.00;;;;;;5132060;28;20444;-71
2021/10/05 12:39:55;;;;;;;57.87;2.30;;;17.60;1.00;;;;;;5132681;28;20444;-71
2021/10/05 12:42:22;;;;;;;57.87;2.50;;;18.10;1.00;;;;;;5132786;28;20857;-71
2021/10/05 12:44:55;;;;;;;57.60;2.30;;;18.50;1.00;;;;;;5132325;28;20937;-71